Robert C. Seamans — WDA4486 — position and weather

sailwx.info

Track history (hours):
 
Tides and Currents Weather Stations Pressure Air Temp Water Temp Dewpoint Dewpoint Depression Visibility Wind Speed Wind Dir Waves Ship Positions

Oceanographic research ship Robert C. Seamans (USA)

Ship's website: http://www.sea.edu/sea2000/Supporting2000/RobertSeamansIntro.htm

Detailed information on ship capabilities available from University of Delaware's Ocean Information Center.

Owner: Sea Education Association Corporation, Woods Hole, MA. More information available from US FCC via Universal Licensing System and Coast Guard Vessel Documentation Center.

Last reported at 2017-Jan-09 20:34 UTC. Time now 2017-Jan-24 19:18 UTC.
Position S 36°25' E 174°55'.
Warning: this ship's position is 14 days out of date.

Type: Sailing vessel. MMSI: 369503000.

Date/timePositionNaut miles runAvg speedWind from/ knotsBaromVisibWave heightAir tempDewpointWater temp
2017-Jan-09 20:34S 36°25' E 174°55'9 9.1
2017-Jan-09 19:33S 36°34' E 174°52'  
2017-Jan-06 18:31S 36°49' E 174°50'10 0.5
2017-Jan-05 21:33S 36°40' E 174°54'7 6.9
2017-Jan-05 20:33S 36°34' E 174°49'6 6.2
2017-Jan-05 19:33S 36°28' E 174°47'1 0.1
2017-Jan-05 02:33S 36°28' E 174°48'7 7.1
2017-Jan-05 01:33S 36°28' E 174°57'4 4.5
2017-Jan-05 00:33S 36°28' E 175°03'2 1.8
2017-Jan-04 23:33S 36°27' E 175°05'  
2016-Dec-31 03:13S 36°30' E 175°02'2 3.7
2016-Dec-31 02:33S 36°31' E 174°59'5 4.7
2016-Dec-31 01:33S 36°32' E 174°53'  
Track history (hours):
 
Tides and Currents Weather Stations Pressure Air Temp Water Temp Dewpoint Dewpoint Depression Visibility Wind Speed Wind Dir Waves Ship Positions

Oceanographic research ship Robert C. Seamans (USA)

Ship's website: http://www.sea.edu/sea2000/Supporting2000/RobertSeamansIntro.htm

Detailed information on ship capabilities available from University of Delaware's Ocean Information Center.

Owner: Sea Education Association Corporation, Woods Hole, MA. More information available from US FCC via Universal Licensing System and Coast Guard Vessel Documentation Center.

Last reported at 2017-Jan-09 20:34 UTC. Time now 2017-Jan-24 19:18 UTC.
Position S 36°25' E 174°55'.
Warning: this ship's position is 14 days out of date.

Type: Sailing vessel. MMSI: 369503000.

Date/timePositionNaut miles runAvg speedWind from/ knotsBaromVisibWave heightAir tempDewpointWater temp
2017-Jan-09 20:34S 36°25' E 174°55'9 9.1
2017-Jan-09 19:33S 36°34' E 174°52'  
2017-Jan-06 18:31S 36°49' E 174°50'10 0.5
2017-Jan-05 21:33S 36°40' E 174°54'7 6.9
2017-Jan-05 20:33S 36°34' E 174°49'6 6.2
2017-Jan-05 19:33S 36°28' E 174°47'1 0.1
2017-Jan-05 02:33S 36°28' E 174°48'7 7.1
2017-Jan-05 01:33S 36°28' E 174°57'4 4.5
2017-Jan-05 00:33S 36°28' E 175°03'2 1.8
2017-Jan-04 23:33S 36°27' E 175°05'  
2016-Dec-31 03:13S 36°30' E 175°02'2 3.7
2016-Dec-31 02:33S 36°31' E 174°59'5 4.7
2016-Dec-31 01:33S 36°32' E 174°53'  

Dump ship's entire track history